Terminal Aerodrome Forecast
Issued by NWS Tallahassee, FL

Home | Current Version | Previous Version | Text Only | Print | Product List | Glossary On
Versions: 1 2 3 4 5 6 7 8 9 10 11 12 13
000
FTUS42 KTAE 192000 AAA
TAFTLH
TAF AMD
KTLH 192015Z 1920/2018 07003KT P6SM -RA SCT080 BKN110 BKN200
     FM192200 08003KT P6SM VCSH OVC050
     FM200300 06003KT P6SM BKN050=

USA.gov is the U.S. government's official web portal to all federal, state and local government web resources and services.